Fairchild Air Force Base
KSKA : now visible

Airfield :











YOU CAN JOIN US ON...

 
LOGIN :

Register | Disclaimer

   EN    FR    IT 

 









Legend :    VFR   Marginal VFR   IFR   Intensive IFR   Very Intensive IFR
Visi :
Ceiling :
>= 8 km
>= 3000ft
5 to 8 km
1000 to 3000 ft
1500m to 5 km
500 to 1000 ft
800 to 1500m
200 to 500 ft
< 800m
< 200 ft
Symbols :   Thunderstorms  Fog  Heavy snow  Heavy precipitations  Wind > 20 kt







- Airport Elevation : 2461 ft


KSKA - Fairchild Air Force Base

CURRENT METAR :
  • 170327Z 00000KT 10SM OVC004 M01/M01 A2978 RMK AO2A SLP112 $

EXPIRED METARs :
  • 170258Z 00000KT 10SM OVC007 M01/M01 A2978 RMK AO2A SLP112 T10121012 52005 $
  • 170234Z 29003KT 10SM OVC007 M01/M01 A2978 RMK AO2A CIG 005 RWY05 SLP112 $
  • 170158Z 29003KT 10SM OVC008 M01/M01 A2978 RMK AO2A SLP112 T10101010 $
  • 170058Z 00000KT 10SM SCT006 OVC010 M01/M01 A2976 RMK AO2A T10081008 $

TAF COR TAF KSKA
Valid from the 17 at 03:00 until the 18 at 09:00 UTC


170320Z 1703/1809 27006KT 8000 BR OVC005 620055 QNH2978INS
BECMG 1705/1707 30006KT 1600 BR OVC003 620035 QNH2983INS
BECMG 1711/1712 01006KT 3200 BR OVC005 620055 QNH2989INS
BECMG 1714/1715 05010G15KT 4800 -SN BR SCT006 OVC015 620159 QNH2993INS
BECMG 1720/1721 05010G15KT 8000 BR OVC015 620158 QNH3007INS
BECMG 1800/1801 04006KT 9999 NSW SCT015 QNH3013INS TXM01/1704Z TNM08/1803Z
KZSE FIR / North America



MET'MAP, your aeronautical weather chart ! - Copyright ORBIFLY December 2007 - Disclaimer

ORBIFLY MET'MAP TEAM :

Programming & Development : Alexandra Zaïnal
Concept & Development : Baudouin d'Aumeries
Co-Development & Prog : Marc-Olivier Méhu
Technical & hardware support : Manuel Goepfert

Contact : metmap@orbifly.com




SOURCES & CREDITS :

   NOAA       Earth
Advisory